sensor_id;sensor_type;location;lat;lon;timestamp;P1;durP1;ratioP1;P2;durP2;ratioP2
19291;SDS011;9779;51.756;7.450;2023-06-05T00:02:22;3.37;;;1.83;;
19291;SDS011;9779;51.756;7.450;2023-06-05T00:04:47;2.93;;;1.93;;
19291;SDS011;9779;51.756;7.450;2023-06-05T00:07:13;2.53;;;1.77;;
19291;SDS011;9779;51.756;7.450;2023-06-05T00:09:38;2.00;;;1.27;;
19291;SDS011;9779;51.756;7.450;2023-06-05T00:12:04;6.33;;;2.10;;
19291;SDS011;9779;51.756;7.450;2023-06-05T00:14:31;1.73;;;1.50;;
19291;SDS011;9779;51.756;7.450;2023-06-05T00:16:57;2.03;;;1.57;;
19291;SDS011;9779;51.756;7.450;2023-06-05T00:19:22;2.50;;;1.60;;
19291;SDS011;9779;51.756;7.450;2023-06-05T00:21:48;2.43;;;2.00;;
19291;SDS011;9779;51.756;7.450;2023-06-05T00:24:15;4.53;;;1.77;;
19291;SDS011;9779;51.756;7.450;2023-06-05T00:26:41;1.37;;;1.27;;
19291;SDS011;9779;51.756;7.450;2023-06-05T00:29:06;1.90;;;1.80;;
19291;SDS011;9779;51.756;7.450;2023-06-05T00:31:32;1.60;;;1.50;;
19291;SDS011;9779;51.756;7.450;2023-06-05T00:33:58;2.70;;;2.50;;
19291;SDS011;9779;51.756;7.450;2023-06-05T00:36:24;2.97;;;2.10;;
19291;SDS011;9779;51.756;7.450;2023-06-05T00:38:49;2.30;;;1.93;;
19291;SDS011;9779;51.756;7.450;2023-06-05T00:41:15;2.27;;;1.90;;
19291;SDS011;9779;51.756;7.450;2023-06-05T00:43:41;3.80;;;1.57;;
19291;SDS011;9779;51.756;7.450;2023-06-05T00:46:07;2.23;;;1.50;;
19291;SDS011;9779;51.756;7.450;2023-06-05T00:48:32;1.60;;;1.50;;
19291;SDS011;9779;51.756;7.450;2023-06-05T00:50:59;2.43;;;1.93;;
19291;SDS011;9779;51.756;7.450;2023-06-05T00:53:25;3.40;;;1.80;;
19291;SDS011;9779;51.756;7.450;2023-06-05T00:55:52;2.23;;;1.83;;
19291;SDS011;9779;51.756;7.450;2023-06-05T00:58:18;2.10;;;1.90;;
19291;SDS011;9779;51.756;7.450;2023-06-05T01:00:44;2.40;;;1.77;;
19291;SDS011;9779;51.756;7.450;2023-06-05T01:03:10;4.73;;;2.00;;
19291;SDS011;9779;51.756;7.450;2023-06-05T01:05:37;2.30;;;1.70;;
19291;SDS011;9779;51.756;7.450;2023-06-05T01:08:03;2.03;;;1.90;;
19291;SDS011;9779;51.756;7.450;2023-06-05T01:10:30;3.30;;;1.90;;
19291;SDS011;9779;51.756;7.450;2023-06-05T01:13:07;15.40;;;3.90;;
19291;SDS011;9779;51.756;7.450;2023-06-05T01:15:41;2.50;;;1.90;;
19291;SDS011;9779;51.756;7.450;2023-06-05T01:18:07;6.30;;;2.30;;
19291;SDS011;9779;51.756;7.450;2023-06-05T01:20:35;2.33;;;2.13;;
19291;SDS011;9779;51.756;7.450;2023-06-05T01:23:03;6.57;;;1.80;;
19291;SDS011;9779;51.756;7.450;2023-06-05T01:25:29;5.40;;;2.00;;
19291;SDS011;9779;51.756;7.450;2023-06-05T01:27:58;8.77;;;2.10;;
19291;SDS011;9779;51.756;7.450;2023-06-05T01:30:34;4.20;;;2.07;;
19291;SDS011;9779;51.756;7.450;2023-06-05T01:33:13;4.10;;;2.20;;
19291;SDS011;9779;51.756;7.450;2023-06-05T01:35:45;4.07;;;2.10;;
19291;SDS011;9779;51.756;7.450;2023-06-05T01:38:16;2.20;;;2.00;;
19291;SDS011;9779;51.756;7.450;2023-06-05T01:40:42;2.10;;;1.57;;
19291;SDS011;9779;51.756;7.450;2023-06-05T01:43:09;3.27;;;1.83;;
19291;SDS011;9779;51.756;7.450;2023-06-05T01:45:36;2.73;;;1.97;;
19291;SDS011;9779;51.756;7.450;2023-06-05T01:48:05;3.90;;;2.20;;
19291;SDS011;9779;51.756;7.450;2023-06-05T01:50:33;2.70;;;2.50;;
19291;SDS011;9779;51.756;7.450;2023-06-05T01:53:01;5.93;;;2.40;;
19291;SDS011;9779;51.756;7.450;2023-06-05T01:55:27;2.40;;;2.20;;
19291;SDS011;9779;51.756;7.450;2023-06-05T01:57:53;2.53;;;2.33;;
19291;SDS011;9779;51.756;7.450;2023-06-05T02:00:19;3.87;;;2.30;;
19291;SDS011;9779;51.756;7.450;2023-06-05T02:02:45;7.10;;;2.40;;
19291;SDS011;9779;51.756;7.450;2023-06-05T02:05:12;2.80;;;2.40;;
19291;SDS011;9779;51.756;7.450;2023-06-05T02:07:40;4.67;;;2.07;;
19291;SDS011;9779;51.756;7.450;2023-06-05T02:10:07;2.40;;;2.20;;
19291;SDS011;9779;51.756;7.450;2023-06-05T02:12:34;3.43;;;2.50;;
19291;SDS011;9779;51.756;7.450;2023-06-05T02:15:02;3.10;;;2.23;;
19291;SDS011;9779;51.756;7.450;2023-06-05T02:17:28;3.70;;;2.30;;
19291;SDS011;9779;51.756;7.450;2023-06-05T02:19:54;3.13;;;2.40;;
19291;SDS011;9779;51.756;7.450;2023-06-05T02:22:19;2.87;;;2.67;;
19291;SDS011;9779;51.756;7.450;2023-06-05T02:24:48;3.00;;;2.80;;
19291;SDS011;9779;51.756;7.450;2023-06-05T02:27:15;4.83;;;2.57;;
19291;SDS011;9779;51.756;7.450;2023-06-05T02:29:41;3.20;;;3.00;;
19291;SDS011;9779;51.756;7.450;2023-06-05T02:32:06;3.00;;;2.80;;
19291;SDS011;9779;51.756;7.450;2023-06-05T02:34:32;3.00;;;2.80;;
19291;SDS011;9779;51.756;7.450;2023-06-05T02:37:01;2.63;;;2.43;;
19291;SDS011;9779;51.756;7.450;2023-06-05T02:39:27;3.37;;;3.10;;
19291;SDS011;9779;51.756;7.450;2023-06-05T02:41:53;4.23;;;3.50;;
19291;SDS011;9779;51.756;7.450;2023-06-05T02:44:20;2.77;;;2.57;;
19291;SDS011;9779;51.756;7.450;2023-06-05T02:46:46;4.70;;;3.30;;
19291;SDS011;9779;51.756;7.450;2023-06-05T02:49:11;6.50;;;3.07;;
19291;SDS011;9779;51.756;7.450;2023-06-05T02:51:37;3.80;;;3.33;;
19291;SDS011;9779;51.756;7.450;2023-06-05T02:54:02;5.43;;;3.50;;
19291;SDS011;9779;51.756;7.450;2023-06-05T02:56:28;6.40;;;3.57;;
19291;SDS011;9779;51.756;7.450;2023-06-05T02:58:54;4.17;;;3.77;;
19291;SDS011;9779;51.756;7.450;2023-06-05T03:01:21;4.47;;;3.60;;
19291;SDS011;9779;51.756;7.450;2023-06-05T03:03:47;3.87;;;3.57;;
19291;SDS011;9779;51.756;7.450;2023-06-05T03:06:13;3.97;;;3.57;;
19291;SDS011;9779;51.756;7.450;2023-06-05T03:08:42;2.93;;;2.67;;
19291;SDS011;9779;51.756;7.450;2023-06-05T03:11:08;5.53;;;3.73;;
19291;SDS011;9779;51.756;7.450;2023-06-05T03:13:34;4.30;;;3.90;;
19291;SDS011;9779;51.756;7.450;2023-06-05T03:16:00;3.83;;;3.63;;
19291;SDS011;9779;51.756;7.450;2023-06-05T03:18:26;4.00;;;3.80;;
19291;SDS011;9779;51.756;7.450;2023-06-05T03:20:52;6.47;;;4.40;;
19291;SDS011;9779;51.756;7.450;2023-06-05T03:23:25;4.90;;;4.20;;
19291;SDS011;9779;51.756;7.450;2023-06-05T03:25:55;5.80;;;4.00;;
19291;SDS011;9779;51.756;7.450;2023-06-05T03:28:21;5.00;;;3.87;;
19291;SDS011;9779;51.756;7.450;2023-06-05T03:30:48;4.47;;;4.27;;
19291;SDS011;9779;51.756;7.450;2023-06-05T03:33:14;5.60;;;4.27;;
19291;SDS011;9779;51.756;7.450;2023-06-05T03:35:41;5.10;;;4.63;;
19291;SDS011;9779;51.756;7.450;2023-06-05T03:38:14;5.60;;;3.97;;
19291;SDS011;9779;51.756;7.450;2023-06-05T03:40:39;4.93;;;4.23;;
19291;SDS011;9779;51.756;7.450;2023-06-05T03:43:06;7.23;;;4.90;;
19291;SDS011;9779;51.756;7.450;2023-06-05T03:45:32;4.90;;;4.50;;
19291;SDS011;9779;51.756;7.450;2023-06-05T03:47:58;5.07;;;4.67;;
19291;SDS011;9779;51.756;7.450;2023-06-05T03:50:27;5.43;;;4.90;;
19291;SDS011;9779;51.756;7.450;2023-06-05T03:52:54;4.27;;;4.03;;
19291;SDS011;9779;51.756;7.450;2023-06-05T03:55:28;5.27;;;4.87;;
19291;SDS011;9779;51.756;7.450;2023-06-05T03:58:10;5.00;;;4.50;;
19291;SDS011;9779;51.756;7.450;2023-06-05T04:00:43;4.97;;;4.67;;
19291;SDS011;9779;51.756;7.450;2023-06-05T04:03:09;5.20;;;4.80;;
19291;SDS011;9779;51.756;7.450;2023-06-05T04:05:36;5.63;;;4.97;;
19291;SDS011;9779;51.756;7.450;2023-06-05T04:08:03;5.07;;;4.57;;
19291;SDS011;9779;51.756;7.450;2023-06-05T04:10:35;6.17;;;4.87;;
19291;SDS011;9779;51.756;7.450;2023-06-05T04:13:01;8.23;;;5.13;;
19291;SDS011;9779;51.756;7.450;2023-06-05T04:15:28;6.40;;;5.03;;
19291;SDS011;9779;51.756;7.450;2023-06-05T04:17:54;5.10;;;4.70;;
19291;SDS011;9779;51.756;7.450;2023-06-05T04:20:20;6.10;;;5.30;;
19291;SDS011;9779;51.756;7.450;2023-06-05T04:22:46;5.97;;;5.47;;
19291;SDS011;9779;51.756;7.450;2023-06-05T04:25:11;6.03;;;5.50;;
19291;SDS011;9779;51.756;7.450;2023-06-05T04:27:37;5.30;;;4.67;;
19291;SDS011;9779;51.756;7.450;2023-06-05T04:30:04;5.30;;;4.80;;
19291;SDS011;9779;51.756;7.450;2023-06-05T04:32:31;5.67;;;5.10;;
19291;SDS011;9779;51.756;7.450;2023-06-05T04:34:59;5.87;;;5.23;;
19291;SDS011;9779;51.756;7.450;2023-06-05T04:37:25;5.90;;;5.33;;
19291;SDS011;9779;51.756;7.450;2023-06-05T04:39:51;6.10;;;5.47;;
19291;SDS011;9779;51.756;7.450;2023-06-05T04:42:16;5.73;;;5.33;;
19291;SDS011;9779;51.756;7.450;2023-06-05T04:44:42;5.97;;;5.50;;
19291;SDS011;9779;51.756;7.450;2023-06-05T04:47:08;5.57;;;5.17;;
19291;SDS011;9779;51.756;7.450;2023-06-05T04:49:35;6.13;;;5.63;;
19291;SDS011;9779;51.756;7.450;2023-06-05T04:52:00;6.27;;;5.77;;
19291;SDS011;9779;51.756;7.450;2023-06-05T04:54:26;5.90;;;5.50;;
19291;SDS011;9779;51.756;7.450;2023-06-05T04:56:51;5.90;;;5.50;;
19291;SDS011;9779;51.756;7.450;2023-06-05T04:59:17;6.17;;;5.70;;
19291;SDS011;9779;51.756;7.450;2023-06-05T05:01:43;9.93;;;5.90;;
19291;SDS011;9779;51.756;7.450;2023-06-05T05:04:09;5.77;;;4.97;;
19291;SDS011;9779;51.756;7.450;2023-06-05T05:06:36;6.30;;;5.47;;
19291;SDS011;9779;51.756;7.450;2023-06-05T05:09:03;8.67;;;5.80;;
19291;SDS011;9779;51.756;7.450;2023-06-05T05:11:29;7.33;;;4.90;;
19291;SDS011;9779;51.756;7.450;2023-06-05T05:13:54;5.67;;;5.27;;
19291;SDS011;9779;51.756;7.450;2023-06-05T05:16:20;6.17;;;5.57;;
19291;SDS011;9779;51.756;7.450;2023-06-05T05:18:46;9.50;;;5.53;;
19291;SDS011;9779;51.756;7.450;2023-06-05T05:21:12;5.63;;;5.17;;
19291;SDS011;9779;51.756;7.450;2023-06-05T05:23:37;5.83;;;5.43;;
19291;SDS011;9779;51.756;7.450;2023-06-05T05:26:03;6.33;;;5.73;;
19291;SDS011;9779;51.756;7.450;2023-06-05T05:28:29;15.10;;;6.70;;
19291;SDS011;9779;51.756;7.450;2023-06-05T05:30:55;5.93;;;5.47;;
19291;SDS011;9779;51.756;7.450;2023-06-05T05:33:22;6.53;;;6.03;;
19291;SDS011;9779;51.756;7.450;2023-06-05T05:35:48;6.80;;;6.30;;
19291;SDS011;9779;51.756;7.450;2023-06-05T05:38:13;6.37;;;5.87;;
19291;SDS011;9779;51.756;7.450;2023-06-05T05:40:39;6.20;;;5.80;;
19291;SDS011;9779;51.756;7.450;2023-06-05T05:43:05;6.80;;;6.03;;
19291;SDS011;9779;51.756;7.450;2023-06-05T05:45:31;9.93;;;6.40;;
19291;SDS011;9779;51.756;7.450;2023-06-05T05:47:56;7.10;;;5.20;;
19291;SDS011;9779;51.756;7.450;2023-06-05T05:50:22;7.53;;;5.93;;
19291;SDS011;9779;51.756;7.450;2023-06-05T05:52:47;6.47;;;6.03;;
19291;SDS011;9779;51.756;7.450;2023-06-05T05:55:14;7.30;;;6.40;;
19291;SDS011;9779;51.756;7.450;2023-06-05T05:57:39;7.67;;;6.90;;
19291;SDS011;9779;51.756;7.450;2023-06-05T06:00:05;7.90;;;7.10;;
19291;SDS011;9779;51.756;7.450;2023-06-05T06:02:35;7.67;;;7.07;;
19291;SDS011;9779;51.756;7.450;2023-06-05T06:05:02;7.50;;;6.53;;
19291;SDS011;9779;51.756;7.450;2023-06-05T06:07:29;10.20;;;6.20;;
19291;SDS011;9779;51.756;7.450;2023-06-05T06:09:56;7.40;;;6.70;;
19291;SDS011;9779;51.756;7.450;2023-06-05T06:12:21;6.30;;;5.80;;
19291;SDS011;9779;51.756;7.450;2023-06-05T06:14:47;6.30;;;5.70;;
19291;SDS011;9779;51.756;7.450;2023-06-05T06:17:13;8.43;;;6.50;;
19291;SDS011;9779;51.756;7.450;2023-06-05T06:19:39;8.07;;;6.40;;
19291;SDS011;9779;51.756;7.450;2023-06-05T06:22:05;6.83;;;6.23;;
19291;SDS011;9779;51.756;7.450;2023-06-05T06:24:40;6.97;;;6.37;;
19291;SDS011;9779;51.756;7.450;2023-06-05T06:27:06;6.57;;;6.07;;
19291;SDS011;9779;51.756;7.450;2023-06-05T06:29:34;10.60;;;6.47;;
19291;SDS011;9779;51.756;7.450;2023-06-05T06:31:59;7.43;;;6.30;;
19291;SDS011;9779;51.756;7.450;2023-06-05T06:34:25;6.87;;;6.27;;
19291;SDS011;9779;51.756;7.450;2023-06-05T06:36:51;9.13;;;5.67;;
19291;SDS011;9779;51.756;7.450;2023-06-05T06:39:17;7.30;;;6.70;;
19291;SDS011;9779;51.756;7.450;2023-06-05T06:41:43;6.13;;;5.73;;
19291;SDS011;9779;51.756;7.450;2023-06-05T06:44:09;6.57;;;5.83;;
19291;SDS011;9779;51.756;7.450;2023-06-05T06:46:35;6.27;;;5.83;;
19291;SDS011;9779;51.756;7.450;2023-06-05T06:49:01;6.87;;;6.37;;
19291;SDS011;9779;51.756;7.450;2023-06-05T06:51:27;7.03;;;6.43;;
19291;SDS011;9779;51.756;7.450;2023-06-05T06:53:52;7.00;;;5.70;;
19291;SDS011;9779;51.756;7.450;2023-06-05T06:56:18;7.27;;;6.10;;
19291;SDS011;9779;51.756;7.450;2023-06-05T06:58:44;6.93;;;6.43;;
19291;SDS011;9779;51.756;7.450;2023-06-05T07:01:10;4.90;;;4.50;;
19291;SDS011;9779;51.756;7.450;2023-06-05T07:03:37;3.50;;;3.13;;
19291;SDS011;9779;51.756;7.450;2023-06-05T07:06:05;4.00;;;3.17;;
19291;SDS011;9779;51.756;7.450;2023-06-05T07:08:30;5.80;;;3.10;;
19291;SDS011;9779;51.756;7.450;2023-06-05T07:10:56;4.67;;;4.30;;
19291;SDS011;9779;51.756;7.450;2023-06-05T07:13:22;6.93;;;5.17;;
19291;SDS011;9779;51.756;7.450;2023-06-05T07:15:48;12.30;;;6.00;;
19291;SDS011;9779;51.756;7.450;2023-06-05T07:18:14;6.00;;;4.97;;
19291;SDS011;9779;51.756;7.450;2023-06-05T07:20:42;6.97;;;4.13;;
19291;SDS011;9779;51.756;7.450;2023-06-05T07:23:08;7.40;;;5.90;;
19291;SDS011;9779;51.756;7.450;2023-06-05T07:25:33;4.80;;;4.40;;
19291;SDS011;9779;51.756;7.450;2023-06-05T07:27:59;7.10;;;5.03;;
19291;SDS011;9779;51.756;7.450;2023-06-05T07:30:28;6.00;;;5.00;;
19291;SDS011;9779;51.756;7.450;2023-06-05T07:32:53;7.63;;;5.50;;
19291;SDS011;9779;51.756;7.450;2023-06-05T07:35:19;4.67;;;3.97;;
19291;SDS011;9779;51.756;7.450;2023-06-05T07:37:45;4.63;;;3.87;;
19291;SDS011;9779;51.756;7.450;2023-06-05T07:40:11;6.30;;;4.10;;
19291;SDS011;9779;51.756;7.450;2023-06-05T07:42:36;5.93;;;5.43;;
19291;SDS011;9779;51.756;7.450;2023-06-05T07:45:02;6.87;;;5.23;;
19291;SDS011;9779;51.756;7.450;2023-06-05T07:47:28;5.83;;;5.33;;
19291;SDS011;9779;51.756;7.450;2023-06-05T07:50:00;5.47;;;5.07;;
19291;SDS011;9779;51.756;7.450;2023-06-05T07:52:28;5.87;;;5.37;;
19291;SDS011;9779;51.756;7.450;2023-06-05T07:54:55;6.30;;;5.70;;
19291;SDS011;9779;51.756;7.450;2023-06-05T07:57:21;6.90;;;5.77;;
19291;SDS011;9779;51.756;7.450;2023-06-05T07:59:49;11.43;;;6.07;;
19291;SDS011;9779;51.756;7.450;2023-06-05T08:02:15;10.37;;;5.43;;
19291;SDS011;9779;51.756;7.450;2023-06-05T08:04:44;4.90;;;4.43;;
19291;SDS011;9779;51.756;7.450;2023-06-05T08:07:10;5.67;;;5.10;;
19291;SDS011;9779;51.756;7.450;2023-06-05T08:09:35;7.13;;;4.43;;
19291;SDS011;9779;51.756;7.450;2023-06-05T08:12:04;9.03;;;5.10;;
19291;SDS011;9779;51.756;7.450;2023-06-05T08:14:30;10.73;;;4.70;;
19291;SDS011;9779;51.756;7.450;2023-06-05T08:16:56;5.57;;;4.97;;
19291;SDS011;9779;51.756;7.450;2023-06-05T08:19:22;7.20;;;4.77;;
19291;SDS011;9779;51.756;7.450;2023-06-05T08:21:51;5.63;;;3.67;;
19291;SDS011;9779;51.756;7.450;2023-06-05T08:24:19;5.23;;;4.73;;
19291;SDS011;9779;51.756;7.450;2023-06-05T08:26:45;5.80;;;5.33;;
19291;SDS011;9779;51.756;7.450;2023-06-05T08:29:11;6.40;;;4.57;;
19291;SDS011;9779;51.756;7.450;2023-06-05T08:31:39;3.40;;;3.10;;
19291;SDS011;9779;51.756;7.450;2023-06-05T08:34:05;5.97;;;3.57;;
19291;SDS011;9779;51.756;7.450;2023-06-05T08:36:31;4.43;;;4.00;;
19291;SDS011;9779;51.756;7.450;2023-06-05T08:38:58;5.70;;;3.63;;
19291;SDS011;9779;51.756;7.450;2023-06-05T08:41:23;7.67;;;4.50;;
19291;SDS011;9779;51.756;7.450;2023-06-05T08:43:50;8.10;;;4.00;;
19291;SDS011;9779;51.756;7.450;2023-06-05T08:46:16;4.88;;;4.45;;
19291;SDS011;9779;51.756;7.450;2023-06-05T08:48:45;6.77;;;4.47;;
19291;SDS011;9779;51.756;7.450;2023-06-05T08:51:13;7.67;;;4.60;;
19291;SDS011;9779;51.756;7.450;2023-06-05T08:53:41;7.50;;;4.65;;
19291;SDS011;9779;51.756;7.450;2023-06-05T08:56:07;4.13;;;3.50;;
19291;SDS011;9779;51.756;7.450;2023-06-05T08:58:34;7.20;;;4.80;;
19291;SDS011;9779;51.756;7.450;2023-06-05T09:01:02;6.17;;;3.40;;
19291;SDS011;9779;51.756;7.450;2023-06-05T09:03:28;5.60;;;4.28;;
19291;SDS011;9779;51.756;7.450;2023-06-05T09:05:54;7.70;;;3.88;;
19291;SDS011;9779;51.756;7.450;2023-06-05T09:08:27;4.07;;;3.67;;
19291;SDS011;9779;51.756;7.450;2023-06-05T09:11:18;8.00;;;3.53;;
19291;SDS011;9779;51.756;7.450;2023-06-05T09:13:47;7.13;;;4.20;;
19291;SDS011;9779;51.756;7.450;2023-06-05T09:16:19;4.07;;;3.78;;
19291;SDS011;9779;51.756;7.450;2023-06-05T09:18:53;4.77;;;3.80;;
19291;SDS011;9779;51.756;7.450;2023-06-05T09:21:19;4.78;;;3.65;;
19291;SDS011;9779;51.756;7.450;2023-06-05T09:23:46;7.40;;;4.10;;
19291;SDS011;9779;51.756;7.450;2023-06-05T09:26:11;14.13;;;3.92;;
19291;SDS011;9779;51.756;7.450;2023-06-05T09:29:01;4.80;;;4.40;;
19291;SDS011;9779;51.756;7.450;2023-06-05T09:31:27;3.90;;;3.60;;
19291;SDS011;9779;51.756;7.450;2023-06-05T09:34:06;8.07;;;3.65;;
19291;SDS011;9779;51.756;7.450;2023-06-05T09:36:31;8.85;;;4.45;;
19291;SDS011;9779;51.756;7.450;2023-06-05T09:38:59;3.97;;;2.83;;
19291;SDS011;9779;51.756;7.450;2023-06-05T09:41:46;3.60;;;2.97;;
19291;SDS011;9779;51.756;7.450;2023-06-05T09:44:14;3.65;;;3.35;;
19291;SDS011;9779;51.756;7.450;2023-06-05T09:46:53;3.42;;;3.13;;
19291;SDS011;9779;51.756;7.450;2023-06-05T09:49:26;6.38;;;3.40;;
19291;SDS011;9779;51.756;7.450;2023-06-05T09:51:56;3.60;;;3.22;;
19291;SDS011;9779;51.756;7.450;2023-06-05T09:54:25;5.18;;;2.20;;
19291;SDS011;9779;51.756;7.450;2023-06-05T09:56:51;3.38;;;2.33;;
19291;SDS011;9779;51.756;7.450;2023-06-05T09:59:27;6.28;;;3.20;;
19291;SDS011;9779;51.756;7.450;2023-06-05T10:01:55;5.55;;;2.55;;
19291;SDS011;9779;51.756;7.450;2023-06-05T10:04:23;4.88;;;2.97;;
19291;SDS011;9779;51.756;7.450;2023-06-05T10:06:50;4.70;;;2.92;;
19291;SDS011;9779;51.756;7.450;2023-06-05T10:09:17;8.52;;;2.53;;
19291;SDS011;9779;51.756;7.450;2023-06-05T10:11:43;3.03;;;1.80;;
19291;SDS011;9779;51.756;7.450;2023-06-05T10:14:13;7.47;;;3.05;;
19291;SDS011;9779;51.756;7.450;2023-06-05T10:16:39;2.90;;;2.65;;
19291;SDS011;9779;51.756;7.450;2023-06-05T10:19:05;4.68;;;2.88;;
19291;SDS011;9779;51.756;7.450;2023-06-05T10:21:32;4.38;;;3.15;;
19291;SDS011;9779;51.756;7.450;2023-06-05T10:24:05;4.57;;;2.35;;
19291;SDS011;9779;51.756;7.450;2023-06-05T10:26:46;3.47;;;2.50;;
19291;SDS011;9779;51.756;7.450;2023-06-05T10:40:38;5.93;;;2.95;;
19291;SDS011;9779;51.756;7.450;2023-06-05T10:43:23;2.50;;;2.22;;
19291;SDS011;9779;51.756;7.450;2023-06-05T10:45:53;4.45;;;2.28;;
19291;SDS011;9779;51.756;7.450;2023-06-05T10:48:19;2.65;;;1.50;;
19291;SDS011;9779;51.756;7.450;2023-06-05T10:50:45;4.28;;;1.83;;
19291;SDS011;9779;51.756;7.450;2023-06-05T10:56:47;1.98;;;1.77;;
19291;SDS011;9779;51.756;7.450;2023-06-05T10:59:14;2.55;;;1.45;;
19291;SDS011;9779;51.756;7.450;2023-06-05T11:01:40;2.47;;;2.17;;
19291;SDS011;9779;51.756;7.450;2023-06-05T11:04:06;3.15;;;2.05;;
19291;SDS011;9779;51.756;7.450;2023-06-05T11:06:32;3.90;;;2.35;;
19291;SDS011;9779;51.756;7.450;2023-06-05T11:11:54;2.30;;;1.83;;
19291;SDS011;9779;51.756;7.450;2023-06-05T11:14:21;2.47;;;1.95;;
19291;SDS011;9779;51.756;7.450;2023-06-05T11:16:47;5.85;;;1.42;;
19291;SDS011;9779;51.756;7.450;2023-06-05T11:22:29;4.05;;;1.95;;
19291;SDS011;9779;51.756;7.450;2023-06-05T11:24:38;4.85;;;1.95;;
19291;SDS011;9779;51.756;7.450;2023-06-05T11:27:04;3.20;;;1.98;;
19291;SDS011;9779;51.756;7.450;2023-06-05T11:29:31;7.85;;;2.15;;
19291;SDS011;9779;51.756;7.450;2023-06-05T11:31:58;3.22;;;2.17;;
19291;SDS011;9779;51.756;7.450;2023-06-05T11:34:24;4.78;;;2.47;;
19291;SDS011;9779;51.756;7.450;2023-06-05T11:36:50;2.15;;;1.83;;
19291;SDS011;9779;51.756;7.450;2023-06-05T11:39:16;9.57;;;1.73;;
19291;SDS011;9779;51.756;7.450;2023-06-05T11:41:45;3.97;;;2.15;;
19291;SDS011;9779;51.756;7.450;2023-06-05T11:44:13;6.32;;;2.15;;
19291;SDS011;9779;51.756;7.450;2023-06-05T11:46:42;2.67;;;2.30;;
19291;SDS011;9779;51.756;7.450;2023-06-05T11:49:09;3.55;;;2.30;;
19291;SDS011;9779;51.756;7.450;2023-06-05T11:51:49;5.28;;;1.85;;
19291;SDS011;9779;51.756;7.450;2023-06-05T11:57:21;3.38;;;2.25;;
19291;SDS011;9779;51.756;7.450;2023-06-05T11:59:52;5.78;;;2.13;;
19291;SDS011;9779;51.756;7.450;2023-06-05T12:02:20;2.35;;;1.70;;
19291;SDS011;9779;51.756;7.450;2023-06-05T12:04:47;2.13;;;1.90;;
19291;SDS011;9779;51.756;7.450;2023-06-05T12:07:13;7.55;;;1.70;;
19291;SDS011;9779;51.756;7.450;2023-06-05T12:09:38;2.83;;;1.35;;
19291;SDS011;9779;51.756;7.450;2023-06-05T12:12:06;1.67;;;1.58;;
19291;SDS011;9779;51.756;7.450;2023-06-05T12:14:32;4.18;;;1.88;;
19291;SDS011;9779;51.756;7.450;2023-06-05T12:16:58;4.18;;;1.65;;
19291;SDS011;9779;51.756;7.450;2023-06-05T12:19:24;1.48;;;1.38;;
19291;SDS011;9779;51.756;7.450;2023-06-05T12:21:50;1.77;;;1.55;;
19291;SDS011;9779;51.756;7.450;2023-06-05T12:24:26;3.70;;;1.67;;
19291;SDS011;9779;51.756;7.450;2023-06-05T12:26:53;4.88;;;1.60;;
19291;SDS011;9779;51.756;7.450;2023-06-05T12:29:19;1.60;;;1.50;;
19291;SDS011;9779;51.756;7.450;2023-06-05T12:31:49;3.40;;;1.27;;
19291;SDS011;9779;51.756;7.450;2023-06-05T12:34:16;2.50;;;1.60;;
19291;SDS011;9779;51.756;7.450;2023-06-05T12:36:42;1.58;;;1.20;;
19291;SDS011;9779;51.756;7.450;2023-06-05T12:39:11;1.83;;;1.15;;
19291;SDS011;9779;51.756;7.450;2023-06-05T12:41:38;3.50;;;1.40;;
19291;SDS011;9779;51.756;7.450;2023-06-05T12:44:05;7.65;;;1.42;;
19291;SDS011;9779;51.756;7.450;2023-06-05T12:46:32;2.05;;;1.25;;
19291;SDS011;9779;51.756;7.450;2023-06-05T12:48:59;4.05;;;1.17;;
19291;SDS011;9779;51.756;7.450;2023-06-05T12:51:26;4.68;;;1.52;;
19291;SDS011;9779;51.756;7.450;2023-06-05T12:53:53;7.32;;;1.38;;
19291;SDS011;9779;51.756;7.450;2023-06-05T12:56:19;1.95;;;1.00;;
19291;SDS011;9779;51.756;7.450;2023-06-05T12:58:49;4.03;;;1.40;;
19291;SDS011;9779;51.756;7.450;2023-06-05T13:01:16;4.22;;;1.38;;
19291;SDS011;9779;51.756;7.450;2023-06-05T13:03:41;1.42;;;1.10;;
19291;SDS011;9779;51.756;7.450;2023-06-05T13:06:07;6.35;;;1.27;;
19291;SDS011;9779;51.756;7.450;2023-06-05T13:08:33;5.47;;;1.38;;
19291;SDS011;9779;51.756;7.450;2023-06-05T13:10:58;1.42;;;1.25;;
19291;SDS011;9779;51.756;7.450;2023-06-05T13:13:24;1.42;;;1.08;;
19291;SDS011;9779;51.756;7.450;2023-06-05T13:15:50;3.47;;;1.60;;
19291;SDS011;9779;51.756;7.450;2023-06-05T13:18:15;2.33;;;1.27;;
19291;SDS011;9779;51.756;7.450;2023-06-05T13:20:41;3.75;;;1.33;;
19291;SDS011;9779;51.756;7.450;2023-06-05T13:23:06;1.08;;;1.00;;
19291;SDS011;9779;51.756;7.450;2023-06-05T13:25:32;1.80;;;1.30;;
19291;SDS011;9779;51.756;7.450;2023-06-05T13:27:58;1.45;;;1.23;;
19291;SDS011;9779;51.756;7.450;2023-06-05T13:30:24;3.33;;;1.50;;
19291;SDS011;9779;51.756;7.450;2023-06-05T13:32:50;2.05;;;1.05;;
19291;SDS011;9779;51.756;7.450;2023-06-05T13:35:19;1.25;;;1.08;;
19291;SDS011;9779;51.756;7.450;2023-06-05T13:37:44;1.52;;;1.02;;
19291;SDS011;9779;51.756;7.450;2023-06-05T13:40:10;1.35;;;0.98;;
19291;SDS011;9779;51.756;7.450;2023-06-05T13:42:38;1.40;;;1.30;;
19291;SDS011;9779;51.756;7.450;2023-06-05T13:45:04;2.10;;;1.30;;
19291;SDS011;9779;51.756;7.450;2023-06-05T13:47:30;2.42;;;1.20;;
19291;SDS011;9779;51.756;7.450;2023-06-05T13:49:55;1.13;;;1.00;;
19291;SDS011;9779;51.756;7.450;2023-06-05T13:52:22;1.30;;;1.10;;
19291;SDS011;9779;51.756;7.450;2023-06-05T13:54:48;2.78;;;0.93;;
19291;SDS011;9779;51.756;7.450;2023-06-05T13:57:13;0.93;;;0.90;;
19291;SDS011;9779;51.756;7.450;2023-06-05T13:59:41;1.48;;;1.10;;
19291;SDS011;9779;51.756;7.450;2023-06-05T14:02:07;3.60;;;1.17;;
19291;SDS011;9779;51.756;7.450;2023-06-05T14:04:33;1.27;;;1.10;;
19291;SDS011;9779;51.756;7.450;2023-06-05T14:06:59;1.17;;;1.08;;
19291;SDS011;9779;51.756;7.450;2023-06-05T14:09:24;1.65;;;1.55;;
19291;SDS011;9779;51.756;7.450;2023-06-05T14:11:50;2.33;;;1.00;;
19291;SDS011;9779;51.756;7.450;2023-06-05T14:14:15;1.17;;;1.08;;
19291;SDS011;9779;51.756;7.450;2023-06-05T14:16:41;1.80;;;1.05;;
19291;SDS011;9779;51.756;7.450;2023-06-05T14:19:07;7.47;;;1.17;;
19291;SDS011;9779;51.756;7.450;2023-06-05T14:21:32;1.67;;;1.35;;
19291;SDS011;9779;51.756;7.450;2023-06-05T14:23:58;1.63;;;1.17;;
19291;SDS011;9779;51.756;7.450;2023-06-05T14:26:23;1.98;;;1.20;;
19291;SDS011;9779;51.756;7.450;2023-06-05T14:28:50;2.78;;;0.95;;
19291;SDS011;9779;51.756;7.450;2023-06-05T14:31:16;1.38;;;1.23;;
19291;SDS011;9779;51.756;7.450;2023-06-05T14:33:41;5.30;;;1.10;;
19291;SDS011;9779;51.756;7.450;2023-06-05T14:36:07;3.47;;;1.13;;
19291;SDS011;9779;51.756;7.450;2023-06-05T14:38:32;1.10;;;0.93;;
19291;SDS011;9779;51.756;7.450;2023-06-05T14:40:58;1.08;;;0.88;;
19291;SDS011;9779;51.756;7.450;2023-06-05T14:43:23;1.80;;;1.08;;
19291;SDS011;9779;51.756;7.450;2023-06-05T14:45:51;2.05;;;1.08;;
19291;SDS011;9779;51.756;7.450;2023-06-05T14:48:16;1.23;;;0.93;;
19291;SDS011;9779;51.756;7.450;2023-06-05T14:50:42;1.02;;;0.98;;
19291;SDS011;9779;51.756;7.450;2023-06-05T14:53:08;3.53;;;1.00;;
19291;SDS011;9779;51.756;7.450;2023-06-05T14:55:33;1.27;;;1.10;;
19291;SDS011;9779;51.756;7.450;2023-06-05T14:57:59;1.25;;;0.90;;
19291;SDS011;9779;51.756;7.450;2023-06-05T15:00:24;1.40;;;1.00;;
19291;SDS011;9779;51.756;7.450;2023-06-05T15:02:50;1.02;;;0.90;;
19291;SDS011;9779;51.756;7.450;2023-06-05T15:05:15;1.65;;;1.02;;
19291;SDS011;9779;51.756;7.450;2023-06-05T15:07:41;6.63;;;1.20;;
19291;SDS011;9779;51.756;7.450;2023-06-05T15:10:08;1.02;;;0.90;;
19291;SDS011;9779;51.756;7.450;2023-06-05T15:12:36;1.80;;;1.00;;
19291;SDS011;9779;51.756;7.450;2023-06-05T15:15:02;2.42;;;0.95;;
19291;SDS011;9779;51.756;7.450;2023-06-05T15:17:28;3.95;;;0.95;;
19291;SDS011;9779;51.756;7.450;2023-06-05T15:19:53;3.33;;;0.88;;
19291;SDS011;9779;51.756;7.450;2023-06-05T15:22:19;1.20;;;1.05;;
19291;SDS011;9779;51.756;7.450;2023-06-05T15:24:45;7.57;;;0.98;;